sensor_id;sensor_type;location;lat;lon;timestamp;temperature;humidity
13251;DHT22;6692;50.710;7.180;2023-06-22T00:00:46;21.60;99.90
13251;DHT22;6692;50.710;7.180;2023-06-22T00:02:47;21.60;99.90
13251;DHT22;6692;50.710;7.180;2023-06-22T00:04:48;21.60;99.90
13251;DHT22;6692;50.710;7.180;2023-06-22T00:06:49;21.60;99.90
13251;DHT22;6692;50.710;7.180;2023-06-22T00:08:50;21.60;99.90
13251;DHT22;6692;50.710;7.180;2023-06-22T00:10:51;21.60;99.90
13251;DHT22;6692;50.710;7.180;2023-06-22T00:12:52;21.60;99.90
13251;DHT22;6692;50.710;7.180;2023-06-22T00:14:53;21.50;99.90
13251;DHT22;6692;50.710;7.180;2023-06-22T00:16:53;21.60;99.90
13251;DHT22;6692;50.710;7.180;2023-06-22T00:18:54;21.60;99.90
13251;DHT22;6692;50.710;7.180;2023-06-22T00:20:55;21.60;99.90
13251;DHT22;6692;50.710;7.180;2023-06-22T00:22:58;21.60;99.90
13251;DHT22;6692;50.710;7.180;2023-06-22T00:24:58;21.60;99.90
13251;DHT22;6692;50.710;7.180;2023-06-22T00:26:59;21.60;99.90
13251;DHT22;6692;50.710;7.180;2023-06-22T00:29:00;21.60;99.90
13251;DHT22;6692;50.710;7.180;2023-06-22T00:31:00;21.60;99.90
13251;DHT22;6692;50.710;7.180;2023-06-22T00:33:01;21.60;99.90
13251;DHT22;6692;50.710;7.180;2023-06-22T00:35:02;21.60;99.90
13251;DHT22;6692;50.710;7.180;2023-06-22T00:37:03;21.60;99.90
13251;DHT22;6692;50.710;7.180;2023-06-22T00:39:04;21.60;99.90
13251;DHT22;6692;50.710;7.180;2023-06-22T00:41:05;21.70;99.90
13251;DHT22;6692;50.710;7.180;2023-06-22T00:43:06;21.60;99.90
13251;DHT22;6692;50.710;7.180;2023-06-22T00:45:07;21.60;99.90
13251;DHT22;6692;50.710;7.180;2023-06-22T00:47:08;21.70;99.90
13251;DHT22;6692;50.710;7.180;2023-06-22T00:49:09;21.70;99.90
13251;DHT22;6692;50.710;7.180;2023-06-22T00:51:10;21.60;99.90
13251;DHT22;6692;50.710;7.180;2023-06-22T00:53:11;21.70;99.90
13251;DHT22;6692;50.710;7.180;2023-06-22T00:55:12;21.70;99.90
13251;DHT22;6692;50.710;7.180;2023-06-22T00:57:13;21.70;99.90
13251;DHT22;6692;50.710;7.180;2023-06-22T00:59:13;21.60;99.90
13251;DHT22;6692;50.710;7.180;2023-06-22T01:01:14;21.70;99.90
13251;DHT22;6692;50.710;7.180;2023-06-22T01:03:14;21.60;99.90
13251;DHT22;6692;50.710;7.180;2023-06-22T01:05:17;21.60;99.90
13251;DHT22;6692;50.710;7.180;2023-06-22T01:07:39;21.60;99.90
13251;DHT22;6692;50.710;7.180;2023-06-22T01:09:44;21.60;99.90
13251;DHT22;6692;50.710;7.180;2023-06-22T01:11:44;21.60;99.90
13251;DHT22;6692;50.710;7.180;2023-06-22T01:16:02;21.60;99.90
13251;DHT22;6692;50.710;7.180;2023-06-22T01:18:01;21.60;99.90
13251;DHT22;6692;50.710;7.180;2023-06-22T01:20:01;21.60;99.90
13251;DHT22;6692;50.710;7.180;2023-06-22T01:22:03;21.60;99.90
13251;DHT22;6692;50.710;7.180;2023-06-22T01:24:28;21.60;99.90
13251;DHT22;6692;50.710;7.180;2023-06-22T01:28:50;21.60;99.90
13251;DHT22;6692;50.710;7.180;2023-06-22T01:30:50;21.60;99.90
13251;DHT22;6692;50.710;7.180;2023-06-22T01:32:51;21.60;99.90
13251;DHT22;6692;50.710;7.180;2023-06-22T01:34:52;21.60;99.90
13251;DHT22;6692;50.710;7.180;2023-06-22T01:36:52;21.60;99.90
13251;DHT22;6692;50.710;7.180;2023-06-22T01:38:53;21.60;99.90
13251;DHT22;6692;50.710;7.180;2023-06-22T01:40:54;21.70;99.90
13251;DHT22;6692;50.710;7.180;2023-06-22T01:42:55;21.70;99.90
13251;DHT22;6692;50.710;7.180;2023-06-22T01:44:55;21.60;99.90
13251;DHT22;6692;50.710;7.180;2023-06-22T01:46:56;21.60;99.90
13251;DHT22;6692;50.710;7.180;2023-06-22T01:48:58;21.70;99.90
13251;DHT22;6692;50.710;7.180;2023-06-22T01:50:58;21.70;99.90
13251;DHT22;6692;50.710;7.180;2023-06-22T01:52:59;21.70;99.90
13251;DHT22;6692;50.710;7.180;2023-06-22T01:55:01;21.70;99.90
13251;DHT22;6692;50.710;7.180;2023-06-22T01:57:01;21.70;99.90
13251;DHT22;6692;50.710;7.180;2023-06-22T01:59:21;21.70;99.90
13251;DHT22;6692;50.710;7.180;2023-06-22T02:01:20;21.70;99.90
13251;DHT22;6692;50.710;7.180;2023-06-22T02:03:20;21.70;99.90
13251;DHT22;6692;50.710;7.180;2023-06-22T02:05:20;21.70;99.90
13251;DHT22;6692;50.710;7.180;2023-06-22T02:07:21;21.70;99.90
13251;DHT22;6692;50.710;7.180;2023-06-22T02:09:22;21.60;99.90
13251;DHT22;6692;50.710;7.180;2023-06-22T02:11:22;21.60;99.90
13251;DHT22;6692;50.710;7.180;2023-06-22T02:13:24;21.60;99.90
13251;DHT22;6692;50.710;7.180;2023-06-22T02:15:23;21.60;99.90
13251;DHT22;6692;50.710;7.180;2023-06-22T02:17:24;21.60;99.90
13251;DHT22;6692;50.710;7.180;2023-06-22T02:19:26;21.60;99.90
13251;DHT22;6692;50.710;7.180;2023-06-22T02:21:26;21.60;99.90
13251;DHT22;6692;50.710;7.180;2023-06-22T02:23:26;21.60;99.90
13251;DHT22;6692;50.710;7.180;2023-06-22T02:25:27;21.60;99.90
13251;DHT22;6692;50.710;7.180;2023-06-22T02:27:28;21.60;99.90
13251;DHT22;6692;50.710;7.180;2023-06-22T02:29:28;21.60;99.90
13251;DHT22;6692;50.710;7.180;2023-06-22T02:31:29;21.60;99.90
13251;DHT22;6692;50.710;7.180;2023-06-22T02:33:30;21.60;99.90
13251;DHT22;6692;50.710;7.180;2023-06-22T02:35:31;21.60;99.90
13251;DHT22;6692;50.710;7.180;2023-06-22T02:37:32;21.60;99.90
13251;DHT22;6692;50.710;7.180;2023-06-22T02:39:32;21.60;99.90
13251;DHT22;6692;50.710;7.180;2023-06-22T02:41:33;21.60;99.90
13251;DHT22;6692;50.710;7.180;2023-06-22T02:43:33;21.60;99.90
13251;DHT22;6692;50.710;7.180;2023-06-22T02:45:34;21.60;99.90
13251;DHT22;6692;50.710;7.180;2023-06-22T02:47:35;21.70;99.90
13251;DHT22;6692;50.710;7.180;2023-06-22T02:49:36;21.60;99.90
13251;DHT22;6692;50.710;7.180;2023-06-22T02:51:38;21.60;99.90
13251;DHT22;6692;50.710;7.180;2023-06-22T02:53:38;21.70;99.90
13251;DHT22;6692;50.710;7.180;2023-06-22T02:55:39;21.60;99.90
13251;DHT22;6692;50.710;7.180;2023-06-22T02:57:40;21.60;99.90
13251;DHT22;6692;50.710;7.180;2023-06-22T02:59:41;21.60;99.90
13251;DHT22;6692;50.710;7.180;2023-06-22T03:01:42;21.60;99.90
13251;DHT22;6692;50.710;7.180;2023-06-22T03:03:43;21.60;99.90
13251;DHT22;6692;50.710;7.180;2023-06-22T03:05:44;21.60;99.90
13251;DHT22;6692;50.710;7.180;2023-06-22T03:07:44;21.60;99.90
13251;DHT22;6692;50.710;7.180;2023-06-22T03:09:45;21.60;99.90
13251;DHT22;6692;50.710;7.180;2023-06-22T03:11:46;21.60;99.90
13251;DHT22;6692;50.710;7.180;2023-06-22T03:13:46;21.60;99.90
13251;DHT22;6692;50.710;7.180;2023-06-22T03:15:47;21.60;99.90
13251;DHT22;6692;50.710;7.180;2023-06-22T03:17:48;21.60;99.90
13251;DHT22;6692;50.710;7.180;2023-06-22T03:19:49;21.70;99.90
13251;DHT22;6692;50.710;7.180;2023-06-22T03:21:49;21.70;99.90
13251;DHT22;6692;50.710;7.180;2023-06-22T03:23:50;21.70;99.90
13251;DHT22;6692;50.710;7.180;2023-06-22T03:25:51;21.70;99.90
13251;DHT22;6692;50.710;7.180;2023-06-22T03:27:52;21.70;99.90
13251;DHT22;6692;50.710;7.180;2023-06-22T03:29:52;21.80;99.90
13251;DHT22;6692;50.710;7.180;2023-06-22T03:31:53;21.70;99.90
13251;DHT22;6692;50.710;7.180;2023-06-22T03:33:54;21.70;99.90
13251;DHT22;6692;50.710;7.180;2023-06-22T03:35:54;21.80;99.90
13251;DHT22;6692;50.710;7.180;2023-06-22T03:37:55;21.80;99.90
13251;DHT22;6692;50.710;7.180;2023-06-22T03:39:56;21.80;99.90
13251;DHT22;6692;50.710;7.180;2023-06-22T03:41:57;21.90;99.90
13251;DHT22;6692;50.710;7.180;2023-06-22T03:43:57;21.90;99.90
13251;DHT22;6692;50.710;7.180;2023-06-22T03:45:58;21.80;99.90
13251;DHT22;6692;50.710;7.180;2023-06-22T03:48:00;21.80;99.90
13251;DHT22;6692;50.710;7.180;2023-06-22T03:50:00;21.80;99.90
13251;DHT22;6692;50.710;7.180;2023-06-22T03:52:01;21.80;99.90
13251;DHT22;6692;50.710;7.180;2023-06-22T03:54:01;21.80;99.90
13251;DHT22;6692;50.710;7.180;2023-06-22T03:56:02;21.80;99.90
13251;DHT22;6692;50.710;7.180;2023-06-22T03:58:03;21.80;99.90
13251;DHT22;6692;50.710;7.180;2023-06-22T04:00:04;21.80;99.90
13251;DHT22;6692;50.710;7.180;2023-06-22T04:02:06;21.80;99.90
13251;DHT22;6692;50.710;7.180;2023-06-22T04:04:07;21.90;99.90
13251;DHT22;6692;50.710;7.180;2023-06-22T04:06:08;21.90;99.90
13251;DHT22;6692;50.710;7.180;2023-06-22T04:08:08;21.80;99.90
13251;DHT22;6692;50.710;7.180;2023-06-22T04:10:09;21.80;99.90
13251;DHT22;6692;50.710;7.180;2023-06-22T04:12:10;21.90;99.90
13251;DHT22;6692;50.710;7.180;2023-06-22T04:14:11;21.90;99.90
13251;DHT22;6692;50.710;7.180;2023-06-22T04:16:11;21.90;99.90
13251;DHT22;6692;50.710;7.180;2023-06-22T04:18:12;21.90;99.90
13251;DHT22;6692;50.710;7.180;2023-06-22T04:20:13;22.00;99.90
13251;DHT22;6692;50.710;7.180;2023-06-22T04:22:14;22.00;99.90
13251;DHT22;6692;50.710;7.180;2023-06-22T04:24:14;22.00;99.90
13251;DHT22;6692;50.710;7.180;2023-06-22T04:26:15;22.10;99.90
13251;DHT22;6692;50.710;7.180;2023-06-22T04:28:17;22.10;99.90
13251;DHT22;6692;50.710;7.180;2023-06-22T04:30:17;22.10;99.90
13251;DHT22;6692;50.710;7.180;2023-06-22T04:32:18;22.10;99.90
13251;DHT22;6692;50.710;7.180;2023-06-22T04:34:19;22.10;99.90
13251;DHT22;6692;50.710;7.180;2023-06-22T04:36:20;22.10;99.90
13251;DHT22;6692;50.710;7.180;2023-06-22T04:38:21;22.20;99.90
13251;DHT22;6692;50.710;7.180;2023-06-22T04:40:22;22.20;99.90
13251;DHT22;6692;50.710;7.180;2023-06-22T04:42:22;22.20;99.90
13251;DHT22;6692;50.710;7.180;2023-06-22T04:44:23;22.10;99.90
13251;DHT22;6692;50.710;7.180;2023-06-22T04:46:25;22.20;99.90
13251;DHT22;6692;50.710;7.180;2023-06-22T04:48:25;22.10;99.90
13251;DHT22;6692;50.710;7.180;2023-06-22T04:50:26;22.10;99.90
13251;DHT22;6692;50.710;7.180;2023-06-22T04:52:27;22.20;99.90
13251;DHT22;6692;50.710;7.180;2023-06-22T04:54:29;22.20;99.90
13251;DHT22;6692;50.710;7.180;2023-06-22T04:56:29;22.20;99.90
13251;DHT22;6692;50.710;7.180;2023-06-22T04:58:30;22.20;99.90
13251;DHT22;6692;50.710;7.180;2023-06-22T05:00:31;22.20;99.90
13251;DHT22;6692;50.710;7.180;2023-06-22T05:02:32;22.20;99.90
13251;DHT22;6692;50.710;7.180;2023-06-22T05:04:32;22.20;99.90
13251;DHT22;6692;50.710;7.180;2023-06-22T05:06:33;22.20;99.90
13251;DHT22;6692;50.710;7.180;2023-06-22T05:08:34;22.30;99.90
13251;DHT22;6692;50.710;7.180;2023-06-22T05:10:36;22.40;99.90
13251;DHT22;6692;50.710;7.180;2023-06-22T05:12:38;22.40;99.90
13251;DHT22;6692;50.710;7.180;2023-06-22T05:14:38;22.40;99.90
13251;DHT22;6692;50.710;7.180;2023-06-22T05:16:40;22.50;99.90
13251;DHT22;6692;50.710;7.180;2023-06-22T05:18:41;22.50;99.90
13251;DHT22;6692;50.710;7.180;2023-06-22T05:20:42;22.50;99.90
13251;DHT22;6692;50.710;7.180;2023-06-22T05:22:42;22.50;99.90
13251;DHT22;6692;50.710;7.180;2023-06-22T05:24:44;22.50;99.90
13251;DHT22;6692;50.710;7.180;2023-06-22T05:26:45;22.40;99.90
13251;DHT22;6692;50.710;7.180;2023-06-22T05:28:46;22.50;99.90
13251;DHT22;6692;50.710;7.180;2023-06-22T05:30:47;22.40;99.90
13251;DHT22;6692;50.710;7.180;2023-06-22T05:32:47;22.50;99.90
13251;DHT22;6692;50.710;7.180;2023-06-22T05:34:48;22.40;99.90
13251;DHT22;6692;50.710;7.180;2023-06-22T05:36:49;22.40;99.90
13251;DHT22;6692;50.710;7.180;2023-06-22T05:38:51;22.40;99.90
13251;DHT22;6692;50.710;7.180;2023-06-22T05:40:52;22.40;99.90
13251;DHT22;6692;50.710;7.180;2023-06-22T05:42:53;22.40;99.90
13251;DHT22;6692;50.710;7.180;2023-06-22T05:44:53;22.40;99.90
13251;DHT22;6692;50.710;7.180;2023-06-22T05:46:55;22.50;99.90
13251;DHT22;6692;50.710;7.180;2023-06-22T05:48:56;22.50;99.90
13251;DHT22;6692;50.710;7.180;2023-06-22T05:50:57;22.50;99.90
13251;DHT22;6692;50.710;7.180;2023-06-22T05:52:58;22.60;99.90
13251;DHT22;6692;50.710;7.180;2023-06-22T05:54:58;22.60;99.90
13251;DHT22;6692;50.710;7.180;2023-06-22T05:56:59;22.60;99.90
13251;DHT22;6692;50.710;7.180;2023-06-22T05:59:00;22.70;99.90
13251;DHT22;6692;50.710;7.180;2023-06-22T06:01:01;22.80;99.90
13251;DHT22;6692;50.710;7.180;2023-06-22T06:03:02;22.70;99.90
13251;DHT22;6692;50.710;7.180;2023-06-22T06:05:03;22.80;99.90
13251;DHT22;6692;50.710;7.180;2023-06-22T06:07:04;22.90;99.90
13251;DHT22;6692;50.710;7.180;2023-06-22T06:09:04;23.00;99.90
13251;DHT22;6692;50.710;7.180;2023-06-22T06:11:05;23.10;99.90
13251;DHT22;6692;50.710;7.180;2023-06-22T06:13:07;23.20;99.90
13251;DHT22;6692;50.710;7.180;2023-06-22T06:15:09;23.20;99.90
13251;DHT22;6692;50.710;7.180;2023-06-22T06:17:10;23.30;99.90
13251;DHT22;6692;50.710;7.180;2023-06-22T06:19:11;23.40;99.90
13251;DHT22;6692;50.710;7.180;2023-06-22T06:21:12;23.40;99.90
13251;DHT22;6692;50.710;7.180;2023-06-22T06:23:12;23.50;99.90
13251;DHT22;6692;50.710;7.180;2023-06-22T06:25:13;23.60;99.90
13251;DHT22;6692;50.710;7.180;2023-06-22T06:27:14;23.60;99.90
13251;DHT22;6692;50.710;7.180;2023-06-22T06:29:15;23.60;99.90
13251;DHT22;6692;50.710;7.180;2023-06-22T06:31:15;23.60;99.90
13251;DHT22;6692;50.710;7.180;2023-06-22T06:33:16;23.70;99.90
13251;DHT22;6692;50.710;7.180;2023-06-22T06:35:17;23.70;99.90
13251;DHT22;6692;50.710;7.180;2023-06-22T06:37:18;23.70;99.90
13251;DHT22;6692;50.710;7.180;2023-06-22T06:39:19;23.70;99.90
13251;DHT22;6692;50.710;7.180;2023-06-22T06:41:19;23.80;99.90
13251;DHT22;6692;50.710;7.180;2023-06-22T06:43:21;23.80;99.90
13251;DHT22;6692;50.710;7.180;2023-06-22T06:45:22;23.80;99.90
13251;DHT22;6692;50.710;7.180;2023-06-22T06:47:23;23.90;99.90
13251;DHT22;6692;50.710;7.180;2023-06-22T06:49:24;23.80;99.90
13251;DHT22;6692;50.710;7.180;2023-06-22T06:51:24;23.90;99.90
13251;DHT22;6692;50.710;7.180;2023-06-22T06:53:26;24.00;99.90
13251;DHT22;6692;50.710;7.180;2023-06-22T06:55:26;24.00;99.90
13251;DHT22;6692;50.710;7.180;2023-06-22T06:57:27;24.10;99.90
13251;DHT22;6692;50.710;7.180;2023-06-22T06:59:29;24.20;99.90
13251;DHT22;6692;50.710;7.180;2023-06-22T07:01:29;24.30;99.90
13251;DHT22;6692;50.710;7.180;2023-06-22T07:03:31;24.40;99.90
13251;DHT22;6692;50.710;7.180;2023-06-22T07:05:32;24.30;99.90
13251;DHT22;6692;50.710;7.180;2023-06-22T07:07:32;24.40;99.90
13251;DHT22;6692;50.710;7.180;2023-06-22T07:09:33;24.50;99.90
13251;DHT22;6692;50.710;7.180;2023-06-22T07:11:34;24.60;99.90
13251;DHT22;6692;50.710;7.180;2023-06-22T07:13:35;24.70;99.90
13251;DHT22;6692;50.710;7.180;2023-06-22T07:15:36;24.70;99.90
13251;DHT22;6692;50.710;7.180;2023-06-22T07:17:37;24.80;99.90
13251;DHT22;6692;50.710;7.180;2023-06-22T07:19:38;24.80;99.90
13251;DHT22;6692;50.710;7.180;2023-06-22T07:21:39;24.90;99.90
13251;DHT22;6692;50.710;7.180;2023-06-22T07:23:40;24.90;99.90
13251;DHT22;6692;50.710;7.180;2023-06-22T07:25:41;24.90;99.90
13251;DHT22;6692;50.710;7.180;2023-06-22T07:27:46;24.90;99.90
13251;DHT22;6692;50.710;7.180;2023-06-22T07:29:46;25.00;99.90
13251;DHT22;6692;50.710;7.180;2023-06-22T07:31:47;25.00;99.90
13251;DHT22;6692;50.710;7.180;2023-06-22T07:33:47;25.00;99.90
13251;DHT22;6692;50.710;7.180;2023-06-22T07:35:48;25.00;99.90
13251;DHT22;6692;50.710;7.180;2023-06-22T07:37:50;24.90;99.90
13251;DHT22;6692;50.710;7.180;2023-06-22T07:39:50;24.80;99.90
13251;DHT22;6692;50.710;7.180;2023-06-22T07:41:51;24.80;99.90
13251;DHT22;6692;50.710;7.180;2023-06-22T07:43:52;24.70;99.90
13251;DHT22;6692;50.710;7.180;2023-06-22T07:45:53;24.70;99.90
13251;DHT22;6692;50.710;7.180;2023-06-22T07:47:54;24.70;99.90
13251;DHT22;6692;50.710;7.180;2023-06-22T07:49:55;24.70;99.90
13251;DHT22;6692;50.710;7.180;2023-06-22T07:51:55;24.60;99.90
13251;DHT22;6692;50.710;7.180;2023-06-22T07:53:56;24.60;99.90
13251;DHT22;6692;50.710;7.180;2023-06-22T07:55:56;24.60;99.90
13251;DHT22;6692;50.710;7.180;2023-06-22T07:57:57;24.60;99.90
13251;DHT22;6692;50.710;7.180;2023-06-22T07:59:58;24.60;99.90
13251;DHT22;6692;50.710;7.180;2023-06-22T08:01:58;24.70;99.90
13251;DHT22;6692;50.710;7.180;2023-06-22T08:03:59;24.70;99.90
13251;DHT22;6692;50.710;7.180;2023-06-22T08:06:00;24.70;99.90
13251;DHT22;6692;50.710;7.180;2023-06-22T08:08:00;24.70;99.90
13251;DHT22;6692;50.710;7.180;2023-06-22T08:10:01;24.80;99.90
13251;DHT22;6692;50.710;7.180;2023-06-22T08:12:02;24.80;99.90
13251;DHT22;6692;50.710;7.180;2023-06-22T08:14:03;24.90;99.90
13251;DHT22;6692;50.710;7.180;2023-06-22T08:16:04;24.90;99.90
13251;DHT22;6692;50.710;7.180;2023-06-22T08:18:05;24.90;99.90
13251;DHT22;6692;50.710;7.180;2023-06-22T08:20:06;24.90;99.90
13251;DHT22;6692;50.710;7.180;2023-06-22T08:22:11;25.00;99.90
13251;DHT22;6692;50.710;7.180;2023-06-22T08:24:12;25.00;99.90
13251;DHT22;6692;50.710;7.180;2023-06-22T08:26:12;25.00;99.90
13251;DHT22;6692;50.710;7.180;2023-06-22T08:28:13;25.00;99.90
13251;DHT22;6692;50.710;7.180;2023-06-22T08:30:14;25.10;99.90
13251;DHT22;6692;50.710;7.180;2023-06-22T08:32:14;25.10;99.90
13251;DHT22;6692;50.710;7.180;2023-06-22T08:34:15;25.20;99.90
13251;DHT22;6692;50.710;7.180;2023-06-22T08:36:16;25.20;99.90
13251;DHT22;6692;50.710;7.180;2023-06-22T08:38:17;25.30;99.90
13251;DHT22;6692;50.710;7.180;2023-06-22T08:40:18;25.30;99.90
13251;DHT22;6692;50.710;7.180;2023-06-22T08:42:19;25.50;99.90
13251;DHT22;6692;50.710;7.180;2023-06-22T08:44:19;25.50;99.90
13251;DHT22;6692;50.710;7.180;2023-06-22T08:46:20;25.60;99.90
13251;DHT22;6692;50.710;7.180;2023-06-22T08:48:21;25.70;99.90
13251;DHT22;6692;50.710;7.180;2023-06-22T08:50:21;25.80;99.90
13251;DHT22;6692;50.710;7.180;2023-06-22T08:52:22;26.00;99.90
13251;DHT22;6692;50.710;7.180;2023-06-22T08:54:23;26.10;99.90
13251;DHT22;6692;50.710;7.180;2023-06-22T08:56:23;26.20;99.90
13251;DHT22;6692;50.710;7.180;2023-06-22T08:58:24;26.30;99.90
13251;DHT22;6692;50.710;7.180;2023-06-22T09:00:25;26.40;99.90
13251;DHT22;6692;50.710;7.180;2023-06-22T09:02:26;26.60;99.90
13251;DHT22;6692;50.710;7.180;2023-06-22T09:04:27;26.50;99.90
13251;DHT22;6692;50.710;7.180;2023-06-22T09:06:28;26.60;99.90
13251;DHT22;6692;50.710;7.180;2023-06-22T09:08:28;26.70;99.90
13251;DHT22;6692;50.710;7.180;2023-06-22T09:10:29;26.80;99.90
13251;DHT22;6692;50.710;7.180;2023-06-22T09:12:30;26.90;99.90
13251;DHT22;6692;50.710;7.180;2023-06-22T09:14:30;26.90;99.90
13251;DHT22;6692;50.710;7.180;2023-06-22T09:16:31;26.90;99.90
13251;DHT22;6692;50.710;7.180;2023-06-22T09:18:33;27.10;99.90
13251;DHT22;6692;50.710;7.180;2023-06-22T09:20:34;27.10;99.90
13251;DHT22;6692;50.710;7.180;2023-06-22T09:22:35;27.20;99.90
13251;DHT22;6692;50.710;7.180;2023-06-22T09:24:37;27.20;99.90
13251;DHT22;6692;50.710;7.180;2023-06-22T09:26:37;27.20;99.90
13251;DHT22;6692;50.710;7.180;2023-06-22T09:28:38;27.20;99.90
13251;DHT22;6692;50.710;7.180;2023-06-22T09:30:39;27.20;99.90
13251;DHT22;6692;50.710;7.180;2023-06-22T09:32:39;27.20;99.90
13251;DHT22;6692;50.710;7.180;2023-06-22T09:34:40;27.20;99.90
13251;DHT22;6692;50.710;7.180;2023-06-22T09:36:41;27.20;99.90
13251;DHT22;6692;50.710;7.180;2023-06-22T09:38:42;27.20;99.90
13251;DHT22;6692;50.710;7.180;2023-06-22T09:40:43;27.30;99.90
13251;DHT22;6692;50.710;7.180;2023-06-22T09:42:43;27.40;99.90
13251;DHT22;6692;50.710;7.180;2023-06-22T09:44:45;27.30;99.90
13251;DHT22;6692;50.710;7.180;2023-06-22T09:46:45;27.30;99.90
13251;DHT22;6692;50.710;7.180;2023-06-22T09:48:46;27.30;99.90
13251;DHT22;6692;50.710;7.180;2023-06-22T09:50:47;27.20;99.90
13251;DHT22;6692;50.710;7.180;2023-06-22T09:52:47;27.00;99.90
13251;DHT22;6692;50.710;7.180;2023-06-22T09:54:48;26.90;99.90
13251;DHT22;6692;50.710;7.180;2023-06-22T09:56:49;26.90;99.90
13251;DHT22;6692;50.710;7.180;2023-06-22T09:58:50;26.70;99.90
13251;DHT22;6692;50.710;7.180;2023-06-22T10:00:51;26.60;99.90
13251;DHT22;6692;50.710;7.180;2023-06-22T10:02:53;26.50;99.90
13251;DHT22;6692;50.710;7.180;2023-06-22T10:04:53;26.50;99.90
13251;DHT22;6692;50.710;7.180;2023-06-22T10:06:54;26.40;99.90
13251;DHT22;6692;50.710;7.180;2023-06-22T10:08:55;26.30;99.90
13251;DHT22;6692;50.710;7.180;2023-06-22T10:10:56;26.30;99.90
13251;DHT22;6692;50.710;7.180;2023-06-22T10:13:02;26.20;99.90
13251;DHT22;6692;50.710;7.180;2023-06-22T10:14:58;26.20;99.90
13251;DHT22;6692;50.710;7.180;2023-06-22T10:16:59;26.20;99.90
13251;DHT22;6692;50.710;7.180;2023-06-22T10:19:00;26.10;99.90
13251;DHT22;6692;50.710;7.180;2023-06-22T10:21:00;26.00;99.90
13251;DHT22;6692;50.710;7.180;2023-06-22T10:23:02;25.80;99.90
13251;DHT22;6692;50.710;7.180;2023-06-22T10:25:03;25.70;99.90
13251;DHT22;6692;50.710;7.180;2023-06-22T10:27:04;25.60;99.90
13251;DHT22;6692;50.710;7.180;2023-06-22T10:29:05;25.50;99.90
13251;DHT22;6692;50.710;7.180;2023-06-22T10:31:05;25.40;99.90
13251;DHT22;6692;50.710;7.180;2023-06-22T10:33:06;25.30;99.90
13251;DHT22;6692;50.710;7.180;2023-06-22T10:35:07;25.30;99.90
13251;DHT22;6692;50.710;7.180;2023-06-22T10:37:08;25.20;99.90
13251;DHT22;6692;50.710;7.180;2023-06-22T10:39:09;25.10;99.90
13251;DHT22;6692;50.710;7.180;2023-06-22T10:41:09;25.10;99.90
13251;DHT22;6692;50.710;7.180;2023-06-22T10:43:11;25.00;99.90
13251;DHT22;6692;50.710;7.180;2023-06-22T10:45:13;25.00;99.90
13251;DHT22;6692;50.710;7.180;2023-06-22T10:47:14;25.00;99.90
13251;DHT22;6692;50.710;7.180;2023-06-22T10:49:17;25.00;99.90
13251;DHT22;6692;50.710;7.180;2023-06-22T10:51:19;24.70;99.90
13251;DHT22;6692;50.710;7.180;2023-06-22T10:53:20;24.70;99.90
13251;DHT22;6692;50.710;7.180;2023-06-22T10:55:20;24.60;99.90
13251;DHT22;6692;50.710;7.180;2023-06-22T10:57:22;24.50;99.90
13251;DHT22;6692;50.710;7.180;2023-06-22T10:59:22;24.40;99.90
13251;DHT22;6692;50.710;7.180;2023-06-22T11:01:23;24.30;99.90
13251;DHT22;6692;50.710;7.180;2023-06-22T11:03:24;24.00;99.90
13251;DHT22;6692;50.710;7.180;2023-06-22T11:05:26;23.60;99.90
13251;DHT22;6692;50.710;7.180;2023-06-22T11:07:26;23.60;99.90
13251;DHT22;6692;50.710;7.180;2023-06-22T11:09:28;23.60;99.90
13251;DHT22;6692;50.710;7.180;2023-06-22T11:11:29;23.50;99.90
13251;DHT22;6692;50.710;7.180;2023-06-22T11:13:30;23.60;99.90
13251;DHT22;6692;50.710;7.180;2023-06-22T11:15:31;23.50;99.90
13251;DHT22;6692;50.710;7.180;2023-06-22T11:17:32;23.70;99.90
13251;DHT22;6692;50.710;7.180;2023-06-22T11:19:33;23.70;99.90
13251;DHT22;6692;50.710;7.180;2023-06-22T11:21:35;23.90;99.90
13251;DHT22;6692;50.710;7.180;2023-06-22T11:23:35;23.80;99.90
13251;DHT22;6692;50.710;7.180;2023-06-22T11:25:36;24.00;99.90
13251;DHT22;6692;50.710;7.180;2023-06-22T11:27:37;24.00;99.90
13251;DHT22;6692;50.710;7.180;2023-06-22T11:29:37;24.00;99.90
13251;DHT22;6692;50.710;7.180;2023-06-22T11:31:38;24.10;99.90
13251;DHT22;6692;50.710;7.180;2023-06-22T11:33:39;24.30;99.90
13251;DHT22;6692;50.710;7.180;2023-06-22T11:35:39;24.50;99.90
13251;DHT22;6692;50.710;7.180;2023-06-22T11:37:40;24.70;99.90
13251;DHT22;6692;50.710;7.180;2023-06-22T11:39:41;24.90;99.90
13251;DHT22;6692;50.710;7.180;2023-06-22T11:41:42;25.40;99.90
13251;DHT22;6692;50.710;7.180;2023-06-22T11:43:44;25.30;99.90
13251;DHT22;6692;50.710;7.180;2023-06-22T11:45:44;25.50;99.90
13251;DHT22;6692;50.710;7.180;2023-06-22T11:47:44;25.50;99.90
13251;DHT22;6692;50.710;7.180;2023-06-22T11:49:45;25.60;99.90
13251;DHT22;6692;50.710;7.180;2023-06-22T11:51:47;25.70;99.90
13251;DHT22;6692;50.710;7.180;2023-06-22T11:53:47;25.70;99.90
13251;DHT22;6692;50.710;7.180;2023-06-22T11:55:48;25.70;99.90
13251;DHT22;6692;50.710;7.180;2023-06-22T11:57:55;25.50;99.90
13251;DHT22;6692;50.710;7.180;2023-06-22T11:59:55;25.50;99.90
13251;DHT22;6692;50.710;7.180;2023-06-22T12:20:21;24.90;99.90
13251;DHT22;6692;50.710;7.180;2023-06-22T12:22:21;24.90;99.90
13251;DHT22;6692;50.710;7.180;2023-06-22T12:24:22;24.90;99.90
13251;DHT22;6692;50.710;7.180;2023-06-22T12:26:23;25.00;99.90
13251;DHT22;6692;50.710;7.180;2023-06-22T12:28:23;25.10;99.90
13251;DHT22;6692;50.710;7.180;2023-06-22T12:40:57;26.70;99.90
13251;DHT22;6692;50.710;7.180;2023-06-22T12:42:58;26.90;99.90
13251;DHT22;6692;50.710;7.180;2023-06-22T12:44:59;26.90;99.90
13251;DHT22;6692;50.710;7.180;2023-06-22T12:46:59;27.10;99.90
13251;DHT22;6692;50.710;7.180;2023-06-22T12:49:00;27.30;99.90
13251;DHT22;6692;50.710;7.180;2023-06-22T12:51:01;27.30;99.90
13251;DHT22;6692;50.710;7.180;2023-06-22T12:53:02;27.40;99.90
13251;DHT22;6692;50.710;7.180;2023-06-22T12:55:03;27.30;99.90
13251;DHT22;6692;50.710;7.180;2023-06-22T12:57:05;27.40;99.90
13251;DHT22;6692;50.710;7.180;2023-06-22T12:59:06;27.30;99.90
13251;DHT22;6692;50.710;7.180;2023-06-22T13:01:06;27.30;99.90
13251;DHT22;6692;50.710;7.180;2023-06-22T13:03:07;27.30;99.90
13251;DHT22;6692;50.710;7.180;2023-06-22T13:05:08;27.60;99.90
13251;DHT22;6692;50.710;7.180;2023-06-22T13:07:09;27.60;99.90
13251;DHT22;6692;50.710;7.180;2023-06-22T13:09:10;28.00;99.90
13251;DHT22;6692;50.710;7.180;2023-06-22T13:11:11;28.30;99.90
13251;DHT22;6692;50.710;7.180;2023-06-22T13:13:11;28.70;99.90
13251;DHT22;6692;50.710;7.180;2023-06-22T13:15:12;29.00;99.90
13251;DHT22;6692;50.710;7.180;2023-06-22T13:17:13;29.30;99.90
13251;DHT22;6692;50.710;7.180;2023-06-22T13:19:13;29.50;99.90
13251;DHT22;6692;50.710;7.180;2023-06-22T13:21:14;29.70;99.90
13251;DHT22;6692;50.710;7.180;2023-06-22T13:23:15;29.90;99.90
13251;DHT22;6692;50.710;7.180;2023-06-22T13:25:16;30.10;99.90
13251;DHT22;6692;50.710;7.180;2023-06-22T13:27:16;30.20;99.90
13251;DHT22;6692;50.710;7.180;2023-06-22T13:29:17;30.30;99.90